Huvudsida
METAR-TAF:

METAR-TAF

Flygplatser :

Taraz Airport

Taraz, Kazakstan

latitud: 42-51-13N, longitud: 071-18-13E, höjd: 666 m

Aktuellt väderrapport

Denna rapport gjordes för 16 minuter sedan, klockan 08:30 UTC
Vind 2 kt varierande vindriktning
Temperatur 19°C
Fuktighet 21%
Tryck 1022 hPa
Sikt 10 km eller mer

METAR: UADD 210830Z VRB01MPS 9999 NSC 19/M04 Q1022 R31/0///65 NOSIG RMK QFE708/0944

Tid: 14:46 (08:46 UTC)

Väderprognos

Denna rapport gjordes för 3 timmar och 46 minuter sedan, klockan 05:00 UTC
Prognos gäller från 21 kl. 06 UTC till 21 kl. 15 UTC
Vind 10 kt från väst/nordväst i byarna ända upp till 19 kt
Sikt 10 km eller mer
Spridda moln på en höjd av 10000 ft

TAF: UADD 210500Z 2106/2115 30005G10MPS 9999 SCT100

Aktuella väderrapporter och prognoser från 4000 flygplatser (METAR- och TAF-rapporter).

De tillgängliga stationerna syns som gula och röda prickar på kartan.

För musen över prickarna för att se namnen på stationerna.

Klicka sedan för att få väderrapporter och prognoser.

För att ändra kartan: Klicka på de gröna knapparna med ett svart kors på för att zooma in; den gröna knappen med ett streck på för att zooma ut; eller på de gröna pilarna för angränsande kartor.


METAR-TAF: